createdAt,value
2018-08-17T00:02:05.494Z,3.93
2018-08-17T00:04:33.179Z,3.33
2018-08-17T00:07:01.501Z,3.37
2018-08-17T00:09:28.838Z,5.67
2018-08-17T00:11:56.352Z,3.83
2018-08-17T00:14:23.692Z,4.80
2018-08-17T00:16:51.102Z,9.63
2018-08-17T00:19:18.413Z,5.00
2018-08-17T00:21:45.778Z,3.67
2018-08-17T00:24:13.108Z,6.20
2018-08-17T00:26:40.614Z,4.77
2018-08-17T00:29:07.937Z,6.23
2018-08-17T00:31:35.307Z,4.73
2018-08-17T00:34:03.479Z,5.13
2018-08-17T00:36:31.578Z,5.63
2018-08-17T00:38:58.977Z,3.27
2018-08-17T00:41:26.392Z,8.30
2018-08-17T00:43:53.715Z,4.90
2018-08-17T00:46:21.259Z,3.60
2018-08-17T00:48:48.599Z,5.13
2018-08-17T00:51:16.019Z,5.20
2018-08-17T00:53:43.343Z,4.20
2018-08-17T00:56:10.706Z,5.30
2018-08-17T00:58:38.046Z,11.97
2018-08-17T01:01:05.896Z,7.93
2018-08-17T01:03:34.315Z,8.50
2018-08-17T01:06:02.575Z,4.70
2018-08-17T01:08:30.138Z,4.40
2018-08-17T01:10:57.584Z,3.83
2018-08-17T01:13:24.894Z,5.87
2018-08-17T01:15:52.400Z,5.77
2018-08-17T01:18:19.751Z,4.13
2018-08-17T01:20:47.206Z,4.03
2018-08-17T01:23:14.542Z,5.03
2018-08-17T01:25:41.883Z,4.00
2018-08-17T01:28:09.973Z,6.53
2018-08-17T01:30:37.346Z,6.53
2018-08-17T01:33:05.394Z,7.97
2018-08-17T01:35:33.520Z,4.33
2018-08-17T01:38:00.926Z,5.43
2018-08-17T01:40:28.263Z,4.87
2018-08-17T01:42:55.602Z,7.37
2018-08-17T01:45:22.945Z,4.37
2018-08-17T01:47:50.298Z,4.73
2018-08-17T01:50:17.672Z,3.80
2018-08-17T01:52:45.007Z,4.40
2018-08-17T01:55:12.410Z,6.20
2018-08-17T01:57:39.775Z,7.33
2018-08-17T02:00:08.915Z,4.80
2018-08-17T02:02:36.643Z,7.00
2018-08-17T02:05:05.037Z,4.50
2018-08-17T02:07:32.757Z,6.20
2018-08-17T02:10:01.047Z,4.00
2018-08-17T02:12:28.398Z,5.10
2018-08-17T02:14:55.753Z,4.23
2018-08-17T02:17:23.135Z,6.00
2018-08-17T02:19:50.553Z,9.80
2018-08-17T02:22:17.945Z,5.73
2018-08-17T02:24:45.258Z,5.67
2018-08-17T02:27:12.601Z,5.80
2018-08-17T02:29:40.492Z,4.97
2018-08-17T02:32:09.254Z,6.90
2018-08-17T02:34:37.017Z,6.13
2018-08-17T02:37:04.619Z,5.90
2018-08-17T02:39:31.938Z,7.27
2018-08-17T02:41:59.294Z,5.90
2018-08-17T02:44:26.620Z,11.00
2018-08-17T02:46:53.980Z,3.97
2018-08-17T02:49:21.305Z,6.40
2018-08-17T02:51:48.871Z,3.90
2018-08-17T02:54:16.252Z,5.50
2018-08-17T02:56:43.573Z,3.87
2018-08-17T02:59:11.459Z,6.70
2018-08-17T03:01:39.877Z,3.93
2018-08-17T03:04:07.532Z,7.20
2018-08-17T03:06:34.925Z,6.60
2018-08-17T03:09:02.297Z,4.60
2018-08-17T03:11:29.706Z,3.73
2018-08-17T03:13:57.063Z,4.07
2018-08-17T03:16:24.651Z,9.13
2018-08-17T03:18:52.085Z,3.97
2018-08-17T03:21:19.410Z,4.10
2018-08-17T03:23:46.891Z,4.10
2018-08-17T03:26:14.208Z,6.10
2018-08-17T03:28:42.003Z,4.53
2018-08-17T03:31:10.430Z,6.83
2018-08-17T03:33:39.692Z,4.67
2018-08-17T03:36:07.395Z,5.83
2018-08-17T03:38:35.270Z,5.80
2018-08-17T03:41:02.962Z,5.97
2018-08-17T03:43:30.321Z,5.07
2018-08-17T03:45:57.899Z,11.43
2018-08-17T03:48:25.549Z,5.43
2018-08-17T03:50:53.214Z,4.80
2018-08-17T03:53:21.420Z,5.37
2018-08-17T03:55:48.801Z,4.93
2018-08-17T03:58:16.139Z,5.80
2018-08-17T04:00:43.744Z,5.30
2018-08-17T04:03:12.018Z,6.17
2018-08-17T04:05:40.021Z,4.07
2018-08-17T04:08:07.596Z,4.30
2018-08-17T04:10:35.020Z,6.80
2018-08-17T04:13:02.377Z,5.00
2018-08-17T04:15:29.770Z,6.43
2018-08-17T04:17:57.108Z,47.90
2018-08-17T04:20:24.580Z,8.60
2018-08-17T04:22:51.910Z,8.47
2018-08-17T04:25:19.287Z,8.37
2018-08-17T04:27:46.644Z,6.43
2018-08-17T04:30:14.259Z,4.57
2018-08-17T04:32:43.480Z,7.60
2018-08-17T04:35:11.853Z,3.70
2018-08-17T04:37:39.525Z,6.60
2018-08-17T04:40:06.946Z,7.00
2018-08-17T04:42:34.274Z,3.90
2018-08-17T04:45:01.627Z,5.10
2018-08-17T04:47:29.113Z,4.00
2018-08-17T04:49:56.470Z,4.67
2018-08-17T04:52:23.788Z,3.97
2018-08-17T04:54:51.135Z,3.77
2018-08-17T04:57:18.476Z,9.83
2018-08-17T04:59:45.918Z,5.77
2018-08-17T05:02:13.800Z,12.13
2018-08-17T05:04:42.242Z,15.00
2018-08-17T05:07:19.766Z,8.73
2018-08-17T05:09:47.149Z,8.93
2018-08-17T05:12:15.083Z,4.33
2018-08-17T05:14:43.924Z,6.97
2018-08-17T05:17:11.967Z,5.33
2018-08-17T05:19:39.315Z,5.37
2018-08-17T05:22:06.617Z,5.67
2018-08-17T05:24:33.966Z,6.93
2018-08-17T05:27:01.311Z,3.80
2018-08-17T05:29:28.700Z,8.80
2018-08-17T05:31:56.115Z,56.43
2018-08-17T05:34:23.506Z,8.73
2018-08-17T05:36:50.831Z,5.63
2018-08-17T05:39:18.178Z,4.70
2018-08-17T05:41:45.749Z,7.53
2018-08-17T05:44:13.921Z,31.20
2018-08-17T05:46:41.862Z,13.47
2018-08-17T05:49:09.261Z,13.97
2018-08-17T05:51:36.655Z,8.70
2018-08-17T05:54:04.058Z,6.37
2018-08-17T05:56:31.484Z,9.60
2018-08-17T05:58:58.778Z,8.30
2018-08-17T06:01:26.155Z,7.83
2018-08-17T06:03:53.798Z,11.67
2018-08-17T06:06:21.275Z,7.63
2018-08-17T06:08:48.899Z,6.90
2018-08-17T06:11:17.609Z,4.30
2018-08-17T06:13:45.483Z,12.90
2018-08-17T06:16:14.016Z,7.93
2018-08-17T06:18:42.089Z,19.50
2018-08-17T06:21:09.525Z,11.93
2018-08-17T06:23:36.860Z,19.93
2018-08-17T06:26:04.270Z,7.67
2018-08-17T06:28:31.611Z,8.87
2018-08-17T06:30:58.975Z,9.07
2018-08-17T06:33:26.362Z,18.27
2018-08-17T06:35:53.723Z,16.97
2018-08-17T06:38:21.060Z,18.43
2018-08-17T06:40:48.434Z,11.60
2018-08-17T06:43:16.055Z,14.33
2018-08-17T06:45:44.488Z,7.87
2018-08-17T06:48:11.989Z,16.57
2018-08-17T06:50:39.515Z,9.53
2018-08-17T06:53:06.820Z,9.37
2018-08-17T06:55:34.201Z,8.43
2018-08-17T06:58:17.594Z,9.23
2018-08-17T07:00:45.884Z,11.57
2018-08-17T07:03:14.130Z,10.20
2018-08-17T07:05:41.565Z,20.43
2018-08-17T07:08:08.898Z,12.53
2018-08-17T07:10:36.235Z,4.33
2018-08-17T07:13:03.599Z,5.70
2018-08-17T07:15:30.935Z,10.43
2018-08-17T07:17:58.343Z,7.03
2018-08-17T07:20:25.670Z,9.70
2018-08-17T07:22:53.042Z,5.43
2018-08-17T07:25:20.584Z,5.60
2018-08-17T07:27:48.039Z,4.03
2018-08-17T07:30:16.190Z,5.67
2018-08-17T07:32:44.151Z,7.93
2018-08-17T07:35:11.672Z,4.87
2018-08-17T07:37:39.036Z,10.40
2018-08-17T07:40:06.479Z,4.53
2018-08-17T07:42:33.851Z,9.47
2018-08-17T07:45:01.447Z,6.73
2018-08-17T07:47:28.835Z,4.23
2018-08-17T07:49:56.178Z,6.20
2018-08-17T07:52:23.586Z,4.50
2018-08-17T07:54:50.918Z,4.57
2018-08-17T07:57:18.504Z,5.23
2018-08-17T07:59:46.826Z,4.30
2018-08-17T08:02:14.768Z,6.47
2018-08-17T08:04:42.153Z,5.93
2018-08-17T08:07:09.546Z,6.20
2018-08-17T08:09:36.891Z,3.73
2018-08-17T08:12:04.257Z,6.33
2018-08-17T08:14:31.582Z,8.70
2018-08-17T08:16:58.986Z,5.80
2018-08-17T08:19:26.307Z,4.30
2018-08-17T08:21:53.657Z,5.33
2018-08-17T08:24:21.001Z,4.30
2018-08-17T08:26:48.781Z,5.27
2018-08-17T08:29:17.031Z,4.67
2018-08-17T08:31:44.871Z,8.23
2018-08-17T08:34:12.536Z,4.70
2018-08-17T08:36:39.895Z,5.07
2018-08-17T08:39:08.071Z,7.00
2018-08-17T08:41:35.469Z,5.60
2018-08-17T08:44:02.887Z,6.13
2018-08-17T08:46:30.216Z,9.60
2018-08-17T08:48:57.615Z,15.50
2018-08-17T08:51:25.049Z,6.73
2018-08-17T08:53:52.411Z,6.63
2018-08-17T08:56:19.776Z,7.53
2018-08-17T08:58:48.161Z,5.40
2018-08-17T09:01:16.207Z,8.90
2018-08-17T09:03:43.691Z,5.63
2018-08-17T09:06:11.562Z,4.90
2018-08-17T09:08:39.841Z,4.93
2018-08-17T09:11:07.882Z,6.93
2018-08-17T09:13:35.366Z,7.13
2018-08-17T09:16:02.727Z,6.40
2018-08-17T09:18:30.358Z,6.57
2018-08-17T09:20:57.712Z,8.20
2018-08-17T09:23:25.076Z,9.73
2018-08-17T09:25:52.391Z,6.10
2018-08-17T09:28:19.767Z,9.17
2018-08-17T09:30:47.442Z,7.23
2018-08-17T09:33:14.788Z,7.40
2018-08-17T09:35:42.116Z,5.70
2018-08-17T09:38:10.452Z,7.57
2018-08-17T09:40:38.500Z,8.43
2018-08-17T09:43:06.092Z,9.10
2018-08-17T09:45:33.427Z,7.93
2018-08-17T09:48:00.786Z,7.23
2018-08-17T09:50:28.139Z,6.63
2018-08-17T09:52:55.497Z,7.87
2018-08-17T09:55:22.829Z,7.97
2018-08-17T09:57:50.171Z,8.83
2018-08-17T10:00:17.538Z,13.20
2018-08-17T10:02:50.069Z,9.63
2018-08-17T10:05:22.790Z,5.20
2018-08-17T10:07:55.435Z,9.03
2018-08-17T10:10:24.246Z,7.13
2018-08-17T10:12:52.155Z,7.53
2018-08-17T10:15:19.520Z,11.60
2018-08-17T10:17:47.144Z,6.97
2018-08-17T10:20:16.382Z,16.10
2018-08-17T10:22:43.989Z,8.73
2018-08-17T10:25:16.189Z,14.93
2018-08-17T10:27:44.188Z,15.53
2018-08-17T10:30:11.946Z,12.30
2018-08-17T10:32:45.183Z,9.27
2018-08-17T10:35:18.166Z,11.50
2018-08-17T10:37:45.559Z,7.93
2018-08-17T10:40:13.009Z,7.80
2018-08-17T10:42:41.250Z,9.73
2018-08-17T10:45:09.259Z,6.90
2018-08-17T10:47:36.867Z,7.60
2018-08-17T10:50:08.989Z,6.40
2018-08-17T10:52:36.493Z,8.33
2018-08-17T10:55:03.974Z,8.00
2018-08-17T10:57:31.351Z,7.87
2018-08-17T10:59:58.697Z,7.20
2018-08-17T11:02:26.033Z,6.60
2018-08-17T11:04:53.399Z,5.87
2018-08-17T11:07:25.204Z,30.23
2018-08-17T11:09:52.751Z,7.73
2018-08-17T11:12:20.106Z,6.90
2018-08-17T11:14:47.582Z,6.93
2018-08-17T11:17:14.959Z,7.70
2018-08-17T11:19:42.571Z,13.60
2018-08-17T11:22:11.054Z,6.33
2018-08-17T11:24:39.750Z,7.47
2018-08-17T11:27:08.237Z,7.90
2018-08-17T11:29:36.627Z,5.63
2018-08-17T11:32:04.088Z,7.17
2018-08-17T11:34:32.124Z,4.63
2018-08-17T11:37:00.317Z,5.30
2018-08-17T11:39:27.672Z,6.50
2018-08-17T11:41:55.484Z,8.73
2018-08-17T11:44:22.808Z,7.07
2018-08-17T11:46:50.195Z,4.17
2018-08-17T11:49:17.599Z,5.13
2018-08-17T11:51:45.082Z,11.07
2018-08-17T11:54:13.112Z,9.13
2018-08-17T11:56:41.937Z,4.43
2018-08-17T11:59:09.887Z,5.13
2018-08-17T12:01:37.317Z,10.20
2018-08-17T12:04:04.637Z,5.80
2018-08-17T12:06:31.979Z,9.67
2018-08-17T12:08:59.320Z,8.07
2018-08-17T12:11:26.686Z,10.80
2018-08-17T12:13:54.161Z,5.70
2018-08-17T12:16:21.614Z,7.00
2018-08-17T12:18:48.961Z,7.20
2018-08-17T12:21:16.367Z,8.63
2018-08-17T12:23:44.120Z,6.10
2018-08-17T12:26:12.774Z,7.33
2018-08-17T12:28:40.601Z,13.60
2018-08-17T12:31:08.023Z,5.70
2018-08-17T12:33:35.351Z,6.50
2018-08-17T12:36:02.772Z,9.80
2018-08-17T12:38:30.163Z,6.40
2018-08-17T12:40:58.327Z,10.97
2018-08-17T12:43:26.571Z,7.10
2018-08-17T12:45:53.945Z,6.90
2018-08-17T12:48:21.278Z,27.80
2018-08-17T12:50:48.677Z,14.03
2018-08-17T12:53:17.531Z,7.53
2018-08-17T12:55:45.677Z,7.77
2018-08-17T12:58:15.913Z,9.50
2018-08-17T13:00:44.820Z,7.10
2018-08-17T13:03:13.406Z,6.63
2018-08-17T13:05:41.719Z,15.17
2018-08-17T13:08:09.213Z,8.00
2018-08-17T13:10:36.626Z,6.63
2018-08-17T13:13:06.324Z,9.27
2018-08-17T13:15:33.897Z,8.13
2018-08-17T13:18:09.287Z,12.93
2018-08-17T13:20:36.714Z,5.50
2018-08-17T13:23:04.093Z,6.87
2018-08-17T13:25:31.520Z,16.23
2018-08-17T13:28:00.368Z,6.07
2018-08-17T13:30:27.969Z,7.27
2018-08-17T13:32:56.357Z,5.07
2018-08-17T13:35:24.480Z,5.60
2018-08-17T13:37:51.884Z,5.30
2018-08-17T13:40:19.250Z,11.93
2018-08-17T13:42:46.663Z,11.00
2018-08-17T13:45:14.764Z,5.40
2018-08-17T13:47:43.034Z,5.20
2018-08-17T13:50:10.477Z,9.63
2018-08-17T13:52:37.895Z,10.57
2018-08-17T13:55:05.298Z,8.27
2018-08-17T13:57:32.924Z,4.87
2018-08-17T14:00:00.323Z,5.73
2018-08-17T14:02:27.735Z,6.20
2018-08-17T14:04:55.158Z,5.40
2018-08-17T14:07:22.574Z,6.50
2018-08-17T14:09:50.036Z,5.07
2018-08-17T14:12:17.397Z,5.30
2018-08-17T14:14:45.251Z,6.13
2018-08-17T14:17:13.530Z,5.00
2018-08-17T14:19:40.971Z,6.23
2018-08-17T14:22:08.476Z,4.63
2018-08-17T14:24:35.799Z,6.83
2018-08-17T14:27:03.164Z,15.87
2018-08-17T14:29:30.489Z,8.60
2018-08-17T14:31:58.022Z,5.30
2018-08-17T14:34:25.462Z,5.00
2018-08-17T14:36:52.803Z,7.80
2018-08-17T14:39:20.155Z,5.63
2018-08-17T14:42:00.240Z,4.30
2018-08-17T14:44:28.070Z,8.53
2018-08-17T14:46:55.684Z,4.00
2018-08-17T14:49:23.440Z,5.33
2018-08-17T14:51:50.931Z,6.07
2018-08-17T14:54:18.342Z,9.93
2018-08-17T14:56:46.304Z,8.30
2018-08-17T14:59:14.837Z,17.10
2018-08-17T15:01:42.517Z,5.17
2018-08-17T15:04:09.931Z,5.10
2018-08-17T15:06:37.415Z,5.27
2018-08-17T15:09:07.159Z,5.67
2018-08-17T15:11:34.482Z,5.03
2018-08-17T15:14:01.846Z,10.33
2018-08-17T15:16:29.173Z,8.17
2018-08-17T15:18:56.526Z,7.10
2018-08-17T15:21:23.864Z,5.57
2018-08-17T15:23:51.198Z,8.05
2018-08-17T15:26:18.525Z,6.30
2018-08-17T15:28:46.535Z,7.80
2018-08-17T15:31:14.566Z,5.20
2018-08-17T15:33:41.938Z,3.93
2018-08-17T15:36:09.258Z,4.97
2018-08-17T15:38:36.626Z,10.07
2018-08-17T15:41:03.942Z,6.60
2018-08-17T15:43:31.313Z,11.33
2018-08-17T15:45:58.679Z,5.43
2018-08-17T15:48:26.059Z,11.30
2018-08-17T15:50:53.418Z,6.00
2018-08-17T15:53:20.764Z,4.80
2018-08-17T15:55:48.175Z,6.60
2018-08-17T15:58:16.625Z,9.90
2018-08-17T16:00:44.464Z,5.43
2018-08-17T16:03:11.865Z,9.70
2018-08-17T16:05:39.228Z,6.03
2018-08-17T16:08:06.567Z,6.70
2018-08-17T16:10:33.922Z,10.53
2018-08-17T16:13:01.274Z,5.73
2018-08-17T16:15:28.629Z,7.13
2018-08-17T16:17:55.987Z,7.00
2018-08-17T16:20:23.394Z,7.27
2018-08-17T16:22:50.722Z,6.67
2018-08-17T16:25:18.526Z,6.77
2018-08-17T16:27:46.807Z,12.40
2018-08-17T16:30:15.799Z,9.60
2018-08-17T16:32:43.361Z,10.73
2018-08-17T16:35:11.017Z,10.77
2018-08-17T16:37:42.918Z,11.10
2018-08-17T16:40:10.274Z,9.07
2018-08-17T16:42:37.612Z,10.90
2018-08-17T16:45:05.815Z,10.03
2018-08-17T16:47:33.129Z,11.13
2018-08-17T16:50:00.484Z,10.33
2018-08-17T16:52:27.834Z,11.97
2018-08-17T16:54:55.204Z,18.07
2018-08-17T16:57:22.584Z,9.93
2018-08-17T16:59:50.006Z,10.23
2018-08-17T17:02:18.100Z,9.07
2018-08-17T17:04:46.041Z,10.83
2018-08-17T17:07:13.451Z,10.67
2018-08-17T17:09:40.819Z,12.43
2018-08-17T17:12:10.185Z,12.23
2018-08-17T17:14:37.540Z,12.17
2018-08-17T17:17:05.446Z,13.40
2018-08-17T17:19:32.801Z,12.87
2018-08-17T17:22:00.123Z,10.80
2018-08-17T17:24:27.476Z,15.93
2018-08-17T17:26:54.866Z,12.30
2018-08-17T17:29:30.849Z,13.27
2018-08-17T17:31:58.220Z,17.50
2018-08-17T17:34:25.589Z,11.00
2018-08-17T17:36:52.950Z,11.47
2018-08-17T17:39:20.656Z,10.30
2018-08-17T17:41:49.072Z,10.23
2018-08-17T17:44:16.985Z,14.60
2018-08-17T17:46:44.425Z,9.67
2018-08-17T17:49:11.787Z,19.33
2018-08-17T17:51:39.344Z,22.53
2018-08-17T17:54:07.188Z,12.53
2018-08-17T17:56:34.771Z,9.93
2018-08-17T17:59:07.440Z,21.63
2018-08-17T18:01:34.847Z,2266.67
2018-08-17T18:04:02.241Z,2266.67
2018-08-17T18:06:29.631Z,2266.67
2018-08-17T18:08:58.789Z,1467.00
2018-08-17T18:11:26.264Z,1717.10
2018-08-17T18:13:53.635Z,708.47
2018-08-17T18:16:21.419Z,73.57
2018-08-17T18:18:49.834Z,9.63
2018-08-17T18:21:17.505Z,11.20
2018-08-17T18:23:46.040Z,12.50
2018-08-17T18:26:17.135Z,15.87
2018-08-17T18:28:44.565Z,10.50
2018-08-17T18:31:11.934Z,10.23
2018-08-17T18:33:39.290Z,12.30
2018-08-17T18:36:06.721Z,15.03
2018-08-17T18:38:34.052Z,10.00
2018-08-17T18:41:01.469Z,11.63
2018-08-17T18:43:28.804Z,15.77
2018-08-17T18:45:56.159Z,13.73
2018-08-17T18:48:23.683Z,13.57
2018-08-17T18:50:51.859Z,10.20
2018-08-17T18:53:20.188Z,12.53
2018-08-17T18:55:49.752Z,13.37
2018-08-17T18:58:17.681Z,9.80
2018-08-17T19:00:52.465Z,11.43
2018-08-17T19:03:20.892Z,10.87
2018-08-17T19:05:48.555Z,12.30
2018-08-17T19:08:15.954Z,10.97
2018-08-17T19:10:44.350Z,11.37
2018-08-17T19:13:11.992Z,14.53
2018-08-17T19:15:45.008Z,18.17
2018-08-17T19:18:12.678Z,14.23
2018-08-17T19:20:40.373Z,10.80
2018-08-17T19:23:08.969Z,7.87
2018-08-17T19:25:39.961Z,9.10
2018-08-17T19:28:08.077Z,8.57
2018-08-17T19:30:35.562Z,12.93
2018-08-17T19:33:10.944Z,9.73
2018-08-17T19:35:43.842Z,12.67
2018-08-17T19:38:11.938Z,15.87
2018-08-17T19:40:40.125Z,12.17
2018-08-17T19:43:08.486Z,11.90
2018-08-17T19:45:35.863Z,10.50
2018-08-17T19:48:03.253Z,10.40
2018-08-17T19:50:30.754Z,15.50
2018-08-17T19:52:58.186Z,11.90
2018-08-17T19:55:25.487Z,10.40
2018-08-17T19:57:52.857Z,8.43
2018-08-17T20:00:20.304Z,17.63
2018-08-17T20:02:47.663Z,12.27
2018-08-17T20:05:14.999Z,14.23
2018-08-17T20:07:42.365Z,12.20
2018-08-17T20:10:11.317Z,15.70
2018-08-17T20:12:39.622Z,12.23
2018-08-17T20:15:07.891Z,11.43
2018-08-17T20:17:35.446Z,16.60
2018-08-17T20:20:02.864Z,10.50
2018-08-17T20:22:30.213Z,10.40
2018-08-17T20:24:57.608Z,12.70
2018-08-17T20:27:25.174Z,15.30
2018-08-17T20:29:52.529Z,15.83
2018-08-17T20:32:19.917Z,17.90
2018-08-17T20:34:48.622Z,14.20
2018-08-17T20:37:16.877Z,12.57
2018-08-17T20:39:45.489Z,12.87
2018-08-17T20:42:12.945Z,14.50
2018-08-17T20:44:41.258Z,12.07
2018-08-17T20:47:10.091Z,17.77
2018-08-17T20:49:37.928Z,14.10
2018-08-17T20:52:05.457Z,23.63
2018-08-17T20:54:33.167Z,12.60
2018-08-17T20:57:01.185Z,15.17
2018-08-17T20:59:28.739Z,14.30
2018-08-17T21:01:56.266Z,27.63
2018-08-17T21:04:23.733Z,21.63
2018-08-17T21:06:51.114Z,15.47
2018-08-17T21:09:18.747Z,14.37
2018-08-17T21:11:46.204Z,16.20
2018-08-17T21:14:13.634Z,13.20
2018-08-17T21:16:41.994Z,15.20
2018-08-17T21:19:10.079Z,15.63
2018-08-17T21:21:37.563Z,13.23
2018-08-17T21:24:04.876Z,15.40
2018-08-17T21:26:32.254Z,19.47
2018-08-17T21:28:59.622Z,14.63
2018-08-17T21:31:26.966Z,13.50
2018-08-17T21:33:54.322Z,15.00
2018-08-17T21:36:21.682Z,17.63
2018-08-17T21:38:56.859Z,14.80
2018-08-17T21:41:24.268Z,15.47
2018-08-17T21:43:51.578Z,18.73
2018-08-17T21:46:18.975Z,13.93
2018-08-17T21:48:46.317Z,16.33
2018-08-17T21:51:13.865Z,17.80
2018-08-17T21:53:42.091Z,11.83
2018-08-17T21:56:10.675Z,12.27
2018-08-17T21:58:38.185Z,14.07
2018-08-17T22:01:05.819Z,13.63
2018-08-17T22:03:35.587Z,13.67
2018-08-17T22:06:03.037Z,15.07
2018-08-17T22:08:30.429Z,12.37
2018-08-17T22:10:57.781Z,10.13
2018-08-17T22:13:29.260Z,18.03
2018-08-17T22:15:56.613Z,16.03
2018-08-17T22:18:24.040Z,10.03
2018-08-17T22:20:51.511Z,15.13
2018-08-17T22:23:18.850Z,11.63
2018-08-17T22:25:46.201Z,12.87
2018-08-17T22:28:14.019Z,12.40
2018-08-17T22:30:42.421Z,12.80
2018-08-17T22:33:10.203Z,13.10
2018-08-17T22:35:37.620Z,13.80
2018-08-17T22:38:05.206Z,14.47
2018-08-17T22:40:32.548Z,10.83
2018-08-17T22:42:59.950Z,13.20
2018-08-17T22:45:27.276Z,11.67
2018-08-17T22:47:54.697Z,11.73
2018-08-17T22:50:22.131Z,16.00
2018-08-17T22:52:49.478Z,12.07
2018-08-17T22:55:16.831Z,16.50
2018-08-17T22:57:44.640Z,14.97
2018-08-17T23:00:16.919Z,17.70
2018-08-17T23:02:45.491Z,12.73
2018-08-17T23:05:14.885Z,15.03
2018-08-17T23:07:43.270Z,14.30
2018-08-17T23:10:13.968Z,15.73
2018-08-17T23:12:42.052Z,16.23
2018-08-17T23:15:10.355Z,16.87
2018-08-17T23:17:38.034Z,13.60
2018-08-17T23:20:05.572Z,13.20
2018-08-17T23:22:32.983Z,12.67
2018-08-17T23:25:00.399Z,13.27
2018-08-17T23:27:27.760Z,12.90
2018-08-17T23:29:55.124Z,14.00
2018-08-17T23:32:22.500Z,14.67
2018-08-17T23:34:49.878Z,18.20
2018-08-17T23:37:17.221Z,18.97
2018-08-17T23:39:45.270Z,15.03
2018-08-17T23:42:13.545Z,13.90
2018-08-17T23:44:41.112Z,14.00
2018-08-17T23:47:08.507Z,19.13
2018-08-17T23:49:35.951Z,16.23
2018-08-17T23:52:03.384Z,19.30
2018-08-17T23:54:30.757Z,17.97
2018-08-17T23:56:58.084Z,19.77
2018-08-17T23:59:26.427Z,22.00
